F/V Fleur Des Vagues — FPEJ — position and weather

sailwx.info

Track history (hours):
 
Tides and Currents Weather Stations Pressure Air Temp Water Temp Dewpoint Dewpoint Depression Visibility Wind Speed Wind Dir Waves Ship Positions

F/V Fleur Des Vagues

Last reported at 2014-Dec-21 18:33 UTC. Time now 2014-Dec-22 19:31 UTC.
Position N 46°30' W 001°47'.

Length 16 m.

Type: Fishing. MMSI: 227893000.

Date/timePositionNaut miles runAvg speedWind from/ knotsBaromVisibWave heightAir tempDewpointWater temp
2014-Dec-21 18:33N 46°30' W 001°47'0 0.0
2014-Dec-21 17:33N 46°30' W 001°47'0 0.0
2014-Dec-21 16:33N 46°30' W 001°47'0 0.0
2014-Dec-21 15:33N 46°30' W 001°47'0 0.0
2014-Dec-21 14:33N 46°30' W 001°47'0 0.0
2014-Dec-21 13:33N 46°30' W 001°47'1 0.9
2014-Dec-21 12:33N 46°29' W 001°47'9 9.4
2014-Dec-21 11:33N 46°20' W 001°44'10 9.8
2014-Dec-21 10:33N 46°10' W 001°41'  
2014-Dec-14 00:19N 46°04' W 001°39'7 8.9
2014-Dec-13 23:33N 46°10' W 001°41'9 8.8
2014-Dec-13 22:34N 46°19' W 001°44'9 8.5
2014-Dec-13 21:33N 46°27' W 001°47'3 2.6
2014-Dec-13 20:33N 46°30' W 001°47'0 0.0
2014-Dec-13 19:33N 46°30' W 001°47'0 0.2
2014-Dec-13 18:33N 46°30' W 001°47'0 0.2
2014-Dec-13 17:33N 46°30' W 001°47'0 0.0
2014-Dec-13 16:33N 46°30' W 001°47'3 3.3
2014-Dec-13 15:33N 46°27' W 001°46'9 9.4
2014-Dec-13 14:33N 46°18' W 001°44'  
Track history (hours):
 
Tides and Currents Weather Stations Pressure Air Temp Water Temp Dewpoint Dewpoint Depression Visibility Wind Speed Wind Dir Waves Ship Positions

F/V Fleur Des Vagues

Last reported at 2014-Dec-21 18:33 UTC. Time now 2014-Dec-22 19:31 UTC.
Position N 46°30' W 001°47'.

Length 16 m.

Type: Fishing. MMSI: 227893000.

Date/timePositionNaut miles runAvg speedWind from/ knotsBaromVisibWave heightAir tempDewpointWater temp
2014-Dec-21 18:33N 46°30' W 001°47'0 0.0
2014-Dec-21 17:33N 46°30' W 001°47'0 0.0
2014-Dec-21 16:33N 46°30' W 001°47'0 0.0
2014-Dec-21 15:33N 46°30' W 001°47'0 0.0
2014-Dec-21 14:33N 46°30' W 001°47'0 0.0
2014-Dec-21 13:33N 46°30' W 001°47'1 0.9
2014-Dec-21 12:33N 46°29' W 001°47'9 9.4
2014-Dec-21 11:33N 46°20' W 001°44'10 9.8
2014-Dec-21 10:33N 46°10' W 001°41'  
2014-Dec-14 00:19N 46°04' W 001°39'7 8.9
2014-Dec-13 23:33N 46°10' W 001°41'9 8.8
2014-Dec-13 22:34N 46°19' W 001°44'9 8.5
2014-Dec-13 21:33N 46°27' W 001°47'3 2.6
2014-Dec-13 20:33N 46°30' W 001°47'0 0.0
2014-Dec-13 19:33N 46°30' W 001°47'0 0.2
2014-Dec-13 18:33N 46°30' W 001°47'0 0.2
2014-Dec-13 17:33N 46°30' W 001°47'0 0.0
2014-Dec-13 16:33N 46°30' W 001°47'3 3.3
2014-Dec-13 15:33N 46°27' W 001°46'9 9.4
2014-Dec-13 14:33N 46°18' W 001°44'  

Dump ship's entire track history